createdAt,value
2023-04-01T00:01:05.361Z,98911.75
2023-04-01T00:03:37.227Z,98903.91
2023-04-01T00:06:09.183Z,98909.09
2023-04-01T00:08:41.628Z,98904.91
2023-04-01T00:11:14.834Z,98907.50
2023-04-01T00:13:47.439Z,98915.91
2023-04-01T00:16:21.760Z,98914.34
2023-04-01T00:18:54.723Z,98908.50
2023-04-01T00:21:25.748Z,98917.28
2023-04-01T00:23:57.610Z,98911.19
2023-04-01T00:26:29.509Z,98918.22
2023-04-01T00:29:03.016Z,98918.09
2023-04-01T00:31:34.689Z,98916.44
2023-04-01T00:34:07.076Z,98918.22
2023-04-01T00:36:38.759Z,98925.03
2023-04-01T00:39:10.734Z,98926.72
2023-04-01T00:41:43.642Z,98930.41
2023-04-01T00:44:25.662Z,98930.56
2023-04-01T00:46:56.803Z,98926.06
2023-04-01T00:49:35.192Z,98923.38
2023-04-01T00:52:10.220Z,98917.47
2023-04-01T00:54:48.056Z,98919.31
2023-04-01T00:57:40.717Z,98917.63
2023-04-01T01:00:16.208Z,98915.03
2023-04-01T01:02:49.933Z,98919.31
2023-04-01T01:05:28.026Z,98917.97
2023-04-01T01:08:13.057Z,98908.63
2023-04-01T01:10:50.318Z,98914.47
2023-04-01T01:13:48.443Z,98915.56
2023-04-01T01:16:32.361Z,98914.53
2023-04-01T01:19:13.210Z,98908.69
2023-04-01T01:21:59.961Z,98913.88
2023-04-01T01:24:38.884Z,98912.22
2023-04-01T01:27:14.441Z,98910.63
2023-04-01T01:30:17.558Z,98910.37
2023-04-01T01:32:59.885Z,98908.53
2023-04-01T01:35:40.920Z,98916.47
2023-04-01T01:38:19.349Z,98921.63
2023-04-01T01:40:55.770Z,98920.72
2023-04-01T01:43:32.734Z,98921.31
2023-04-01T01:46:10.699Z,98920.28
2023-04-01T01:48:46.540Z,98922.97
2023-04-01T01:51:18.299Z,98913.13
2023-04-01T01:53:50.378Z,98933.16
2023-04-01T01:56:29.676Z,98933.16
2023-04-01T01:59:10.099Z,98931.38
2023-04-01T02:01:46.556Z,98934.66
2023-04-01T02:04:21.374Z,98932.06
2023-04-01T02:07:02.148Z,98938.16
2023-04-01T02:09:36.425Z,98937.31
2023-04-01T02:12:12.140Z,98933.63
2023-04-01T02:15:12.561Z,98942.34
2023-04-01T02:17:54.859Z,98937.22
2023-04-01T02:20:30.679Z,98941.31
2023-04-01T02:23:02.801Z,98934.66
2023-04-01T02:25:38.817Z,98933.34
2023-04-01T02:28:11.149Z,98927.06
2023-04-01T02:30:45.370Z,98930.56
2023-04-01T02:33:16.262Z,98927.97
2023-04-01T02:35:47.445Z,98927.22
2023-04-01T02:38:18.839Z,98933.34
2023-04-01T02:40:54.137Z,98936.66
2023-04-01T02:43:26.274Z,98940.09
2023-04-01T02:45:57.719Z,98944.50
2023-04-01T02:48:28.996Z,98944.66
2023-04-01T02:51:00.525Z,98953.53
2023-04-01T02:53:33.102Z,98956.22
2023-04-01T02:56:04.035Z,98951.88
2023-04-01T02:58:37.634Z,98956.03
2023-04-01T03:01:09.939Z,98953.28
2023-04-01T03:03:40.898Z,98962.72
2023-04-01T03:06:14.319Z,98961.53
2023-04-01T03:08:45.973Z,98962.28
2023-04-01T03:11:17.149Z,98972.50
2023-04-01T03:13:49.039Z,98971.56
2023-04-01T03:16:20.237Z,98957.87
2023-04-01T03:18:56.487Z,98978.09
2023-04-01T03:21:27.267Z,98974.41
2023-04-01T03:23:57.560Z,98979.41
2023-04-01T03:26:29.982Z,98980.34
2023-04-01T03:29:02.098Z,98968.03
2023-04-01T03:31:33.704Z,98984.25
2023-04-01T03:34:06.096Z,98978.50
2023-04-01T03:36:36.545Z,98974.97
2023-04-01T03:39:08.464Z,98973.31
2023-04-01T03:41:41.692Z,98968.03
2023-04-01T03:44:14.386Z,98970.19
2023-04-01T03:46:47.098Z,98967.13
2023-04-01T03:49:19.550Z,98972.84
2023-04-01T03:51:51.556Z,98974.34
2023-04-01T03:54:24.556Z,98983.25
2023-04-01T03:56:57.200Z,98990.00
2023-04-01T03:59:28.248Z,98992.25
2023-04-01T04:01:59.514Z,98994.84
2023-04-01T04:04:32.577Z,98997.34
2023-04-01T04:07:05.001Z,98998.84
2023-04-01T04:09:38.796Z,99006.62
2023-04-01T04:12:10.481Z,99008.47
2023-04-01T04:14:42.624Z,99014.56
2023-04-01T04:17:17.883Z,99010.47
2023-04-01T04:19:50.265Z,99017.06
2023-04-01T04:22:22.165Z,99016.75
2023-04-01T04:24:54.781Z,99007.00
2023-04-01T04:27:26.313Z,99017.75
2023-04-01T04:29:59.729Z,99027.28
2023-04-01T04:32:31.761Z,99029.88
2023-04-01T04:35:03.582Z,99028.13
2023-04-01T04:37:35.196Z,99030.72
2023-04-01T04:40:07.323Z,99042.56
2023-04-01T04:42:38.999Z,99041.16
2023-04-01T04:45:11.445Z,99033.84
2023-04-01T04:47:44.736Z,99027.28
2023-04-01T04:50:19.292Z,99045.75
2023-04-01T04:52:50.666Z,99036.22
2023-04-01T04:55:23.024Z,99043.28
2023-04-01T04:57:54.331Z,99042.75
2023-04-01T05:00:27.081Z,99047.22
2023-04-01T05:02:59.078Z,99046.53
2023-04-01T05:05:31.492Z,99047.13
2023-04-01T05:08:04.180Z,99029.44
2023-04-01T05:10:36.361Z,99054.56
2023-04-01T05:13:07.586Z,99054.34
2023-04-01T05:15:40.236Z,99053.25
2023-04-01T05:18:11.958Z,99054.88
2023-04-01T05:20:53.584Z,99065.66
2023-04-01T05:23:26.363Z,99066.13
2023-04-01T05:25:59.677Z,99071.59
2023-04-01T05:28:31.385Z,99050.44
2023-04-01T05:31:05.644Z,99078.09
2023-04-01T05:33:38.911Z,99066.97
2023-04-01T05:36:14.100Z,99064.28
2023-04-01T05:38:48.192Z,99074.66
2023-04-01T05:41:21.338Z,99075.66
2023-04-01T05:43:53.650Z,99077.03
2023-04-01T05:46:28.407Z,99077.97
2023-04-01T05:49:01.339Z,99081.97
2023-04-01T05:51:34.532Z,99078.47
2023-04-01T05:54:08.696Z,99072.53
2023-04-01T05:56:41.308Z,99081.88
2023-04-01T05:59:14.154Z,99078.81
2023-04-01T06:01:46.417Z,99088.03
2023-04-01T06:04:20.779Z,99094.31
2023-04-01T06:06:53.786Z,99089.97
2023-04-01T06:09:32.495Z,99090.69
2023-04-01T06:12:32.024Z,99093.69
2023-04-01T06:15:14.572Z,99100.81
2023-04-01T06:18:20.806Z,99100.50
2023-04-01T06:21:25.104Z,99096.03
2023-04-01T06:24:26.921Z,99098.19
2023-04-01T06:27:15.537Z,99110.81
2023-04-01T06:29:58.711Z,99111.38
2023-04-01T06:32:48.211Z,99102.84
2023-04-01T06:35:34.056Z,99111.44
2023-04-01T06:38:33.692Z,99095.41
2023-04-01T06:41:12.472Z,99094.91
2023-04-01T06:44:01.658Z,99123.75
2023-04-01T06:47:05.596Z,99119.00
2023-04-01T06:50:04.583Z,99126.63
2023-04-01T06:53:18.626Z,99111.88
2023-04-01T06:56:12.153Z,99122.19
2023-04-01T06:58:51.926Z,99130.72
2023-04-01T07:01:44.981Z,99132.19
2023-04-01T07:04:23.036Z,99121.50
2023-04-01T07:06:59.126Z,99123.56
2023-04-01T07:09:43.181Z,99132.13
2023-04-01T07:12:42.985Z,99136.38
2023-04-01T07:15:23.607Z,99138.47
2023-04-01T07:18:11.880Z,99142.72
2023-04-01T07:20:43.164Z,99144.75
2023-04-01T07:23:30.210Z,99144.84
2023-04-01T07:26:22.724Z,99150.94
2023-04-01T07:28:59.174Z,99152.94
2023-04-01T07:31:53.212Z,99147.81
2023-04-01T07:34:29.958Z,99149.69
2023-04-01T07:37:16.202Z,99153.63
2023-04-01T07:40:17.248Z,99148.44
2023-04-01T07:43:04.461Z,99160.09
2023-04-01T07:45:49.395Z,99158.31
2023-04-01T07:48:39.404Z,99161.34
2023-04-01T07:51:39.818Z,99165.09
2023-04-01T07:54:19.392Z,99166.53
2023-04-01T07:57:10.725Z,99175.50
2023-04-01T07:59:59.482Z,99172.28
2023-04-01T08:02:51.215Z,99178.56
2023-04-01T08:05:31.747Z,99187.75
2023-04-01T08:08:14.269Z,99190.72
2023-04-01T08:10:59.535Z,99167.59
2023-04-01T08:14:04.146Z,99191.16
2023-04-01T08:17:00.173Z,99191.03
2023-04-01T08:19:42.028Z,99187.69
2023-04-01T08:22:22.547Z,99194.16
2023-04-01T08:24:57.112Z,99191.06
2023-04-01T08:27:37.880Z,99201.25
2023-04-01T08:30:23.128Z,99201.00
2023-04-01T08:33:01.568Z,99209.50
2023-04-01T08:35:58.531Z,99214.47
2023-04-01T08:38:39.446Z,99193.50
2023-04-01T08:41:44.685Z,99218.69
2023-04-01T08:45:01.970Z,99202.34
2023-04-01T08:47:52.236Z,99205.34
2023-04-01T08:50:58.836Z,99206.56
2023-04-01T08:53:57.040Z,99204.72
2023-04-01T08:56:37.635Z,99198.78
2023-04-01T08:59:47.057Z,99221.06
2023-04-01T09:02:43.038Z,99207.72
2023-04-01T09:05:39.058Z,99230.41
2023-04-01T09:08:43.052Z,99234.56
2023-04-01T09:11:12.925Z,99232.25
2023-04-01T09:14:15.021Z,99237.44
2023-04-01T09:17:25.308Z,99228.28
2023-04-01T09:20:35.242Z,99239.13
2023-04-01T09:23:18.811Z,99250.31
2023-04-01T09:25:57.401Z,99247.47
2023-04-01T09:28:57.351Z,99228.44
2023-04-01T09:32:01.943Z,99228.69
2023-04-01T09:34:54.541Z,99250.53
2023-04-01T09:37:54.467Z,99252.19
2023-04-01T09:40:54.456Z,99253.28
2023-04-01T09:43:35.035Z,99257.41
2023-04-01T09:46:22.416Z,99268.38
2023-04-01T09:49:32.776Z,99269.53
2023-04-01T09:52:22.685Z,99277.66
2023-04-01T09:54:58.050Z,99262.09
2023-04-01T09:58:07.616Z,99282.88
2023-04-01T10:01:09.660Z,99274.31
2023-04-01T10:03:41.182Z,99276.81
2023-04-01T10:06:50.214Z,99269.56
2023-04-01T10:09:44.818Z,99279.41
2023-04-01T10:12:55.196Z,99273.28
2023-04-01T10:16:05.009Z,99276.66
2023-04-01T10:19:02.968Z,99271.53
2023-04-01T10:22:14.420Z,99271.75
2023-04-01T10:25:07.046Z,99266.19
2023-04-01T10:28:06.059Z,99278.72
2023-04-01T10:31:05.307Z,99280.50
2023-04-01T10:34:15.644Z,99283.25
2023-04-01T10:36:55.237Z,99286.75
2023-04-01T10:40:05.618Z,99287.88
2023-04-01T10:43:17.437Z,99286.25
2023-04-01T10:46:27.089Z,99284.97
2023-04-01T10:49:16.079Z,99299.03
2023-04-01T10:52:21.598Z,99285.75
2023-04-01T10:55:34.667Z,99296.28
2023-04-01T10:58:09.010Z,99298.38
2023-04-01T11:01:26.119Z,99301.25
2023-04-01T11:04:33.909Z,99299.84
2023-04-01T11:07:43.224Z,99303.88
2023-04-01T11:10:51.851Z,99304.03
2023-04-01T11:13:50.619Z,99293.19
2023-04-01T11:17:00.740Z,99287.50
2023-04-01T11:20:10.368Z,99293.31
2023-04-01T11:23:20.376Z,99286.38
2023-04-01T11:26:11.240Z,99289.50
2023-04-01T11:29:12.844Z,99286.84
2023-04-01T11:32:06.426Z,99299.50
2023-04-01T11:34:50.047Z,99318.34
2023-04-01T11:37:27.792Z,99302.53
2023-04-01T11:40:15.196Z,99325.38
2023-04-01T11:43:19.883Z,99326.09
2023-04-01T11:46:33.858Z,99327.50
2023-04-01T11:49:37.663Z,99336.09
2023-04-01T11:52:38.668Z,99331.59
2023-04-01T11:55:26.626Z,99332.28
2023-04-01T11:58:20.812Z,99315.69
2023-04-01T12:01:21.784Z,99320.22
2023-04-01T12:04:30.951Z,99316.53
2023-04-01T12:07:36.180Z,99314.69
2023-04-01T12:10:26.224Z,99319.03
2023-04-01T12:13:35.545Z,99327.50
2023-04-01T12:16:15.946Z,99321.25
2023-04-01T12:19:02.604Z,99323.63
2023-04-01T12:21:53.531Z,99334.06
2023-04-01T12:24:49.975Z,99325.59
2023-04-01T12:27:41.590Z,99322.28
2023-04-01T12:30:38.714Z,99331.31
2023-04-01T12:33:45.591Z,99330.91
2023-04-01T12:36:52.775Z,99328.50
2023-04-01T12:39:41.254Z,99329.84
2023-04-01T12:42:26.492Z,99334.19
2023-04-01T12:45:17.447Z,99340.81
2023-04-01T12:48:08.308Z,99337.31
2023-04-01T12:51:07.230Z,99329.41
2023-04-01T12:53:51.496Z,99335.50
2023-04-01T12:56:50.801Z,99333.25
2023-04-01T12:59:25.409Z,99332.72
2023-04-01T13:02:23.662Z,99339.06
2023-04-01T13:05:02.731Z,99336.59
2023-04-01T13:10:46.580Z,99349.03
2023-04-01T13:13:19.733Z,99350.47
2023-04-01T13:16:17.847Z,99358.81
2023-04-01T13:19:10.750Z,99333.00
2023-04-01T13:22:19.674Z,99346.13
2023-04-01T13:24:59.800Z,99346.84
2023-04-01T13:37:18.911Z,99346.81
2023-04-01T13:40:26.574Z,99355.63
2023-04-01T13:43:09.576Z,99353.09
2023-04-01T13:46:09.064Z,99361.06
2023-04-01T13:48:56.413Z,99361.72
2023-04-01T13:51:46.725Z,99366.75
2023-04-01T13:54:32.553Z,99374.09
2023-04-01T13:57:35.292Z,99379.78
2023-04-01T14:00:41.489Z,99377.69
2023-04-01T14:03:48.310Z,99381.34
2023-04-01T14:06:31.671Z,99382.97
2023-04-01T14:09:18.333Z,99381.72
2023-04-01T14:12:04.936Z,99372.75
2023-04-01T14:14:57.262Z,99379.59
2023-04-01T14:17:31.243Z,99387.59
2023-04-01T14:20:23.434Z,99389.31
2023-04-01T14:23:10.780Z,99390.09
2023-04-01T14:25:47.189Z,99395.53
2023-04-01T14:28:18.531Z,99393.63
2023-04-01T14:31:15.726Z,99395.50
2023-04-01T14:34:01.625Z,99400.56
2023-04-01T14:36:48.233Z,99405.31
2023-04-01T14:39:32.106Z,99403.75
2023-04-01T14:44:55.894Z,99419.00
2023-04-01T14:47:44.213Z,99413.28
2023-04-01T14:50:18.159Z,99418.16
2023-04-01T14:53:13.443Z,99420.88
2023-04-01T14:55:51.993Z,99420.66
2023-04-01T14:58:23.087Z,99420.44
2023-04-01T15:01:29.449Z,99429.47
2023-04-01T15:04:24.355Z,99435.19
2023-04-01T15:07:30.798Z,99436.37
2023-04-01T15:10:30.775Z,99442.69
2023-04-01T15:13:36.880Z,99434.59
2023-04-01T15:16:32.218Z,99446.31
2023-04-01T15:19:30.163Z,99445.19
2023-04-01T15:22:24.433Z,99435.00
2023-04-01T15:25:24.189Z,99457.09
2023-04-01T15:28:08.955Z,99456.69
2023-04-01T15:31:06.900Z,99455.75
2023-04-01T15:33:52.427Z,99458.69
2023-04-01T15:36:43.559Z,99428.69
2023-04-01T15:39:19.444Z,99465.28
2023-04-01T15:42:26.033Z,99473.78
2023-04-01T15:45:05.951Z,99451.09
2023-04-01T15:47:59.331Z,99470.34
2023-04-01T15:50:52.358Z,99465.72
2023-04-01T15:53:37.834Z,99472.25
2023-04-01T15:56:44.802Z,99488.94
2023-04-01T15:59:33.365Z,99490.09
2023-04-01T16:02:30.113Z,99473.53
2023-04-01T16:05:31.933Z,99486.38
2023-04-01T16:08:39.043Z,99498.34
2023-04-01T16:11:22.774Z,99494.41
2023-04-01T16:14:14.271Z,99493.50
2023-04-01T16:17:20.909Z,99499.56
2023-04-01T16:19:53.736Z,99494.44
2023-04-01T16:22:33.010Z,99508.44
2023-04-01T16:25:35.778Z,99509.25
2023-04-01T16:28:24.906Z,99503.13
2023-04-01T16:31:09.779Z,99476.91
2023-04-01T16:33:52.625Z,99511.09
2023-04-01T16:36:31.317Z,99515.38
2023-04-01T16:39:41.340Z,99517.22
2023-04-01T16:42:40.963Z,99512.09
2023-04-01T16:45:38.193Z,99517.69
2023-04-01T16:48:14.523Z,99526.13
2023-04-01T16:51:05.249Z,99527.38
2023-04-01T16:53:44.057Z,99533.12
2023-04-01T16:56:37.405Z,99530.03
2023-04-01T16:59:17.330Z,99532.41
2023-04-01T17:01:51.893Z,99533.66
2023-04-01T17:04:38.135Z,99520.78
2023-04-01T17:07:36.631Z,99544.13
2023-04-01T17:10:30.555Z,99541.81
2023-04-01T17:13:30.728Z,99540.75
2023-04-01T17:16:30.804Z,99550.31
2023-04-01T17:19:25.588Z,99552.53
2023-04-01T17:22:32.321Z,99552.53
2023-04-01T17:25:39.628Z,99563.56
2023-04-01T17:28:37.081Z,99560.28
2023-04-01T17:31:23.037Z,99569.94
2023-04-01T17:34:18.473Z,99574.91
2023-04-01T17:37:01.819Z,99560.22
2023-04-01T17:39:49.927Z,99575.34
2023-04-01T17:42:40.558Z,99579.53
2023-04-01T17:45:37.337Z,99582.25
2023-04-01T17:48:44.641Z,99576.63
2023-04-01T17:51:30.933Z,99551.22
2023-04-01T17:54:38.329Z,99580.34
2023-04-01T17:57:43.514Z,99588.31
2023-04-01T18:00:30.090Z,99571.81
2023-04-01T18:03:33.263Z,99599.59
2023-04-01T18:06:39.989Z,99587.16
2023-04-01T18:09:40.331Z,99610.34
2023-04-01T18:12:47.469Z,99607.72
2023-04-01T18:15:40.892Z,99605.97
2023-04-01T18:18:37.334Z,99618.59
2023-04-01T18:21:31.775Z,99622.66
2023-04-01T18:24:15.560Z,99624.84
2023-04-01T18:26:52.423Z,99619.72
2023-04-01T18:29:37.512Z,99622.75
2023-04-01T18:32:25.479Z,99619.13
2023-04-01T18:35:04.270Z,99622.78
2023-04-01T18:40:56.911Z,99621.63
2023-04-01T18:43:39.254Z,99626.66
2023-04-01T18:46:47.633Z,99632.16
2023-04-01T18:49:46.020Z,99632.03
2023-04-01T18:52:21.353Z,99639.88
2023-04-01T18:55:24.016Z,99639.41
2023-04-01T18:57:57.975Z,99644.25
2023-04-01T19:00:44.577Z,99647.91
2023-04-01T19:03:33.321Z,99647.91
2023-04-01T19:06:13.987Z,99645.97
2023-04-01T19:08:42.812Z,99644.88
2023-04-01T19:11:43.339Z,99638.78
2023-04-01T19:14:27.990Z,99650.09
2023-04-01T19:17:26.076Z,99641.00
2023-04-01T19:20:16.464Z,99645.44
2023-04-01T19:23:17.650Z,99641.66
2023-04-01T19:25:57.224Z,99641.63
2023-04-01T19:28:28.651Z,99644.34
2023-04-01T19:31:19.289Z,99644.13
2023-04-01T19:33:50.372Z,99642.41
2023-04-01T19:39:52.508Z,99634.25
2023-04-01T19:42:38.894Z,99638.31
2023-04-01T19:45:26.584Z,99645.53
2023-04-01T19:48:24.699Z,99654.75
2023-04-01T19:50:56.329Z,99653.62
2023-04-01T19:53:53.830Z,99650.97
2023-04-01T19:56:24.652Z,99659.75
2023-04-01T19:58:58.451Z,99660.91
2023-04-01T20:01:46.625Z,99655.34
2023-04-01T20:04:22.518Z,99659.63
2023-04-01T20:06:50.214Z,99658.25
2023-04-01T20:09:36.710Z,99659.25
2023-04-01T20:12:16.669Z,99662.59
2023-04-01T20:14:54.522Z,99665.72
2023-04-01T20:17:47.525Z,99666.63
2023-04-01T20:20:26.201Z,99666.84
2023-04-01T20:23:12.650Z,99666.00
2023-04-01T20:26:02.658Z,99670.38
2023-04-01T20:28:48.475Z,99666.72
2023-04-01T20:31:26.299Z,99670.47
2023-04-01T20:34:12.514Z,99660.97
2023-04-01T20:37:03.124Z,99670.84
2023-04-01T20:39:45.983Z,99653.53
2023-04-01T20:42:22.711Z,99671.25
2023-04-01T20:44:53.338Z,99683.69
2023-04-01T20:47:49.669Z,99675.69
2023-04-01T20:50:36.618Z,99686.22
2023-04-01T20:53:13.666Z,99689.09
2023-04-01T20:56:11.973Z,99691.88
2023-04-01T20:59:11.908Z,99690.47
2023-04-01T21:01:52.467Z,99701.75
2023-04-01T21:04:27.548Z,99705.13
2023-04-01T21:07:08.432Z,99712.44
2023-04-01T21:09:57.757Z,99715.12
2023-04-01T21:12:25.944Z,99711.63
2023-04-01T21:15:18.646Z,99710.13
2023-04-01T21:18:10.881Z,99710.13
2023-04-01T21:21:09.284Z,99717.38
2023-04-01T21:23:59.503Z,99714.00
2023-04-01T21:27:03.351Z,99703.41
2023-04-01T21:29:55.042Z,99717.09
2023-04-01T21:33:11.565Z,99720.91
2023-04-01T21:35:58.170Z,99724.66
2023-04-01T21:38:48.286Z,99723.53
2023-04-01T21:41:45.228Z,99724.44
2023-04-01T21:44:28.279Z,99721.97
2023-04-01T21:47:25.247Z,99730.31
2023-04-01T21:50:09.822Z,99734.50
2023-04-01T21:53:05.278Z,99728.38
2023-04-01T21:56:11.510Z,99723.78
2023-04-01T21:59:18.934Z,99732.38
2023-04-01T22:02:01.979Z,99738.88
2023-04-01T22:04:36.253Z,99739.16
2023-04-01T22:07:32.465Z,99732.22
2023-04-01T22:10:00.593Z,99733.59
2023-04-01T22:12:46.859Z,99734.25
2023-04-01T22:15:30.789Z,99739.88
2023-04-01T22:18:24.006Z,99750.13
2023-04-01T22:21:06.426Z,99740.72
2023-04-01T22:23:55.859Z,99731.69
2023-04-01T22:26:34.426Z,99746.22
2023-04-01T22:29:19.808Z,99744.53
2023-04-01T22:32:01.311Z,99742.31
2023-04-01T22:34:46.606Z,99756.09
2023-04-01T22:37:42.104Z,99749.00
2023-04-01T22:40:24.962Z,99745.66
2023-04-01T22:43:05.214Z,99743.91
2023-04-01T22:45:45.403Z,99740.09
2023-04-01T22:48:23.150Z,99739.69
2023-04-01T22:51:14.187Z,99735.78
2023-04-01T22:53:59.147Z,99732.97
2023-04-01T22:56:36.108Z,99754.06
2023-04-01T22:59:24.793Z,99751.44
2023-04-01T23:02:39.294Z,99757.03
2023-04-01T23:05:14.274Z,99752.06
2023-04-01T23:07:57.677Z,99755.44
2023-04-01T23:10:32.123Z,99754.19
2023-04-01T23:13:03.641Z,99754.19
2023-04-01T23:15:34.629Z,99751.47
2023-04-01T23:18:35.287Z,99753.69
2023-04-01T23:21:20.024Z,99749.56
2023-04-01T23:24:17.981Z,99748.22
2023-04-01T23:27:02.800Z,99747.47
2023-04-01T23:29:31.430Z,99746.22
2023-04-01T23:32:05.220Z,99753.44
2023-04-01T23:34:36.153Z,99759.34
2023-04-01T23:37:17.449Z,99759.56
2023-04-01T23:39:51.757Z,99766.44
2023-04-01T23:42:24.756Z,99769.84
2023-04-01T23:44:58.336Z,99776.53
2023-04-01T23:47:39.285Z,99768.91
2023-04-01T23:50:19.330Z,99769.88
2023-04-01T23:53:00.642Z,99773.19
2023-04-01T23:55:43.210Z,99780.41
2023-04-01T23:58:16.610Z,99784.75
